Time;durP1;ratioP1;P1;durP2;ratioP2;P2;SDS_P1;SDS_P2;PMS_P1;PMS_P2;Temp;Humidity;BMP_temperature;BMP_pressure;BME280_temperature;BME280_humidity;BME280_pressure;Samples;Min_cycle;Max_cycle;Signal;HPM_P1;HPM_P2
2022/02/11 00:01:32;;;;;;;13.20;3.57;;;7.00;99.90;;;;;;5046984;28;20293;-79
2022/02/11 00:04:04;;;;;;;13.87;3.57;;;7.00;99.90;;;;;;5047509;28;20225;-78
2022/02/11 00:06:47;;;;;;;18.77;4.37;;;6.90;99.90;;;;;;5046942;28;20293;-78
2022/02/11 00:09:14;;;;;;;15.17;3.40;;;6.90;99.90;;;;;;5047868;28;20229;-78
2022/02/11 00:11:42;;;;;;;17.77;4.27;;;6.90;99.90;;;;;;5046809;28;20562;-78
2022/02/11 00:14:10;;;;;;;17.40;4.03;;;6.90;99.90;;;;;;5046856;28;20993;-78
2022/02/11 00:16:40;;;;;;;24.37;5.07;;;6.90;99.90;;;;;;5064080;28;20205;-78
2022/02/11 00:19:08;;;;;;;18.33;3.93;;;7.00;99.90;;;;;;5066810;28;20867;-77
2022/02/11 00:21:35;;;;;;;16.83;5.47;;;7.00;99.90;;;;;;5066338;28;20205;-78
2022/02/11 00:24:02;;;;;;;18.83;4.47;;;7.00;99.90;;;;;;5082976;28;20534;-78
2022/02/11 00:26:33;;;;;;;22.23;4.07;;;7.00;99.90;;;;;;5086799;28;20947;-78
2022/02/11 00:31:55;;;;;;;15.83;3.97;;;7.10;99.90;;;;;;5046575;28;20591;-77
2022/02/11 00:34:30;;;;;;;25.03;3.90;;;7.10;99.90;;;;;;5047897;28;20522;-79
2022/02/11 00:37:06;;;;;;;12.63;4.10;;;7.10;99.90;;;;;;5048664;28;20841;-80
2022/02/11 00:40:04;;;;;;;17.53;4.77;;;7.00;99.90;;;;;;5066514;28;20270;-79
2022/02/11 01:02:17;;;;;;;14.33;3.27;;;6.60;99.90;;;;;;5028250;28;20201;-81
2022/02/11 01:04:44;;;;;;;15.33;3.80;;;6.60;99.90;;;;;;5028063;28;20305;-80
2022/02/11 01:07:12;;;;;;;14.00;3.23;;;6.50;99.90;;;;;;5031107;28;20207;-80
2022/02/11 01:09:40;;;;;;;20.40;3.90;;;6.50;99.90;;;;;;5029296;28;20579;-80
2022/02/11 01:12:09;;;;;;;18.63;3.83;;;6.50;99.90;;;;;;5031641;28;20202;-79
2022/02/11 01:14:39;;;;;;;22.07;4.93;;;6.50;99.90;;;;;;5030255;28;20519;-81
2022/02/11 01:17:13;;;;;;;13.37;3.10;;;6.50;99.90;;;;;;5028681;28;20205;-78
2022/02/11 01:19:50;;;;;;;17.00;3.30;;;6.50;99.90;;;;;;5027915;28;20316;-79
2022/02/11 01:22:28;;;;;;;13.83;3.37;;;6.50;99.90;;;;;;5027400;28;20205;-80
2022/02/11 01:25:10;;;;;;;18.73;3.67;;;6.50;99.90;;;;;;5025594;28;20230;-80
2022/02/11 01:27:44;;;;;;;18.93;3.07;;;6.50;99.90;;;;;;5032491;28;20260;-79
2022/02/11 01:30:39;;;;;;;16.23;3.70;;;6.60;99.90;;;;;;5046597;28;20213;-80
2022/02/11 01:33:30;;;;;;;26.37;6.03;;;6.60;99.90;;;;;;5045574;28;20216;-81
2022/02/11 01:36:07;;;;;;;22.67;4.93;;;6.70;99.90;;;;;;5045536;28;20224;-79
2022/02/11 01:38:46;;;;;;;19.53;3.63;;;6.70;99.90;;;;;;5046036;28;20212;-79
2022/02/11 01:44:11;;;;;;;22.97;4.13;;;6.70;99.90;;;;;;5045815;28;20204;-79
2022/02/11 01:52:46;;;;;;;24.50;4.40;;;6.80;99.90;;;;;;4968504;28;20203;-79
2022/02/11 01:55:29;;;;;;;20.67;5.17;;;6.80;99.90;;;;;;5027352;28;20229;-80
2022/02/11 02:01:04;;;;;;;21.80;4.20;;;6.80;99.90;;;;;;5045367;28;20201;-79
2022/02/11 02:04:20;;;;;;;20.73;5.13;;;6.80;99.90;;;;;;5046420;28;20202;-80
2022/02/11 02:23:32;;;;;;;24.10;4.80;;;6.70;99.90;;;;;;5045800;28;20209;-78
2022/02/11 02:26:11;;;;;;;23.87;4.47;;;6.60;99.90;;;;;;5045220;28;20403;-79
2022/02/11 02:34:52;;;;;;;23.50;5.10;;;6.70;99.90;;;;;;5054545;28;20208;-78
2022/02/11 02:37:38;;;;;;;23.00;4.30;;;6.70;99.90;;;;;;5045323;28;20205;-81
2022/02/11 02:56:51;;;;;;;22.57;4.73;;;6.50;99.90;;;;;;5048013;28;20634;-81
2022/02/11 02:59:40;;;;;;;23.07;4.13;;;6.50;99.90;;;;;;5046136;28;20205;-81
2022/02/11 03:14:24;;;;;;;29.17;4.67;;;6.60;99.90;;;;;;5046886;28;20247;-82
2022/02/11 03:35:14;;;;;;;23.50;4.90;;;6.50;99.90;;;;;;5046783;28;20510;-82
2022/02/11 03:48:58;;;;;;;18.87;4.77;;;6.70;99.90;;;;;;5085275;28;20223;-80
2022/02/11 03:51:48;;;;;;;15.90;3.90;;;6.70;99.90;;;;;;5056923;28;20206;-84
2022/02/11 03:55:10;;;;;;;18.50;3.83;;;6.60;99.90;;;;;;5049620;28;20205;-81
2022/02/11 03:57:51;;;;;;;21.17;4.10;;;6.50;99.90;;;;;;5067602;28;20246;-82
2022/02/11 04:22:38;;;;;;;26.73;4.43;;;6.40;99.90;;;;;;5048080;28;20232;-80
2022/02/11 04:53:54;;;;;;;16.33;3.57;;;6.50;99.90;;;;;;5047409;28;20927;-81
2022/02/11 04:55:51;;;;;;;13.53;3.87;;;6.50;99.90;;;;;;5046670;28;20618;-83
2022/02/11 05:01:03;;;;;;;19.40;3.40;;;5.90;99.90;;;;;;5067450;28;20516;-80
2022/02/11 05:03:30;;;;;;;14.23;2.50;;;5.70;99.90;;;;;;5070978;28;20201;-85
2022/02/11 05:05:57;;;;;;;10.63;2.03;;;5.50;99.90;;;;;;5070644;28;20227;-83
2022/02/11 05:08:25;;;;;;;6.17;1.80;;;5.40;99.90;;;;;;5069901;28;20206;-80
2022/02/11 05:10:55;;;;;;;15.87;2.77;;;5.30;99.90;;;;;;5069734;28;20197;-83
2022/02/11 05:13:22;;;;;;;7.00;2.37;;;5.30;99.90;;;;;;5069613;28;20215;-83
2022/02/11 05:15:49;;;;;;;16.63;4.70;;;5.30;99.90;;;;;;5069793;28;20209;-82
2022/02/11 05:18:17;;;;;;;13.13;2.70;;;5.30;99.90;;;;;;5067895;28;20590;-83
2022/02/11 05:20:44;;;;;;;10.10;3.43;;;5.30;99.90;;;;;;5067028;28;20649;-85
2022/02/11 05:23:14;;;;;;;17.90;3.23;;;5.30;99.90;;;;;;5054409;28;20204;-82
2022/02/11 05:25:42;;;;;;;15.60;3.70;;;5.30;99.90;;;;;;5070004;28;20910;-81
2022/02/11 05:28:12;;;;;;;23.33;5.17;;;5.40;99.90;;;;;;5070285;28;20236;-81
2022/02/11 05:30:39;;;;;;;24.03;4.80;;;5.50;99.90;;;;;;5073146;28;20204;-83
2022/02/11 05:33:07;;;;;;;17.20;3.73;;;5.50;99.90;;;;;;5088616;28;20201;-83
2022/02/11 05:35:36;;;;;;;19.77;4.27;;;5.60;99.90;;;;;;5089725;28;20201;-81
2022/02/11 05:38:02;;;;;;;15.70;2.87;;;5.60;99.90;;;;;;5073247;28;20209;-84
2022/02/11 05:40:29;;;;;;;15.33;3.60;;;5.60;99.90;;;;;;5068730;28;20591;-81
2022/02/11 05:42:56;;;;;;;15.60;3.17;;;5.60;99.90;;;;;;5068045;28;20201;-81
2022/02/11 05:45:24;;;;;;;17.20;4.23;;;5.60;99.90;;;;;;5067339;28;20216;-80
2022/02/11 05:47:51;;;;;;;16.10;3.30;;;5.50;99.90;;;;;;5068577;28;20215;-82
2022/02/11 05:50:18;;;;;;;16.40;3.90;;;5.50;99.90;;;;;;5069187;28;20193;-83
2022/02/11 05:52:45;;;;;;;16.97;3.90;;;5.40;99.90;;;;;;5068787;28;20193;-83
2022/02/11 05:55:12;;;;;;;19.03;3.63;;;5.50;99.90;;;;;;5068942;28;20967;-82
2022/02/11 05:57:39;;;;;;;24.40;3.73;;;5.40;99.90;;;;;;5069094;28;20201;-83
2022/02/11 06:00:07;;;;;;;21.00;4.03;;;5.50;99.90;;;;;;5059461;28;20221;-84
2022/02/11 06:02:35;;;;;;;14.57;3.87;;;5.40;99.90;;;;;;5049030;28;20206;-81
2022/02/11 06:05:02;;;;;;;22.93;5.07;;;5.50;99.90;;;;;;5048633;28;20209;-82
2022/02/11 06:07:29;;;;;;;21.07;3.70;;;5.50;99.90;;;;;;5030740;28;20213;-82
2022/02/11 06:09:58;;;;;;;18.33;4.97;;;5.50;99.90;;;;;;5062359;28;20216;-82
2022/02/11 06:12:24;;;;;;;22.70;4.47;;;5.60;99.90;;;;;;5067927;28;20237;-82
2022/02/11 06:14:51;;;;;;;22.77;4.33;;;5.60;99.90;;;;;;5067063;28;20240;-81
2022/02/11 06:17:20;;;;;;;21.50;4.30;;;5.60;99.90;;;;;;5068008;28;20197;-82
2022/02/11 06:19:48;;;;;;;23.17;4.17;;;5.70;99.90;;;;;;5066064;28;20215;-84
2022/02/11 06:22:15;;;;;;;29.80;6.77;;;5.70;99.90;;;;;;5066569;28;20200;-81
2022/02/11 06:24:42;;;;;;;27.70;4.10;;;5.70;99.90;;;;;;5067773;28;20209;-82
2022/02/11 06:27:09;;;;;;;21.97;4.13;;;5.70;99.90;;;;;;5066614;28;20241;-80
2022/02/11 06:29:36;;;;;;;28.23;5.43;;;5.60;99.90;;;;;;5067403;28;20208;-81
2022/02/11 06:32:03;;;;;;;17.97;4.73;;;5.50;99.90;;;;;;5068103;28;20212;-82
2022/02/11 06:34:30;;;;;;;20.40;5.20;;;5.40;99.90;;;;;;5084559;28;20208;-82
2022/02/11 06:37:06;;;;;;;24.50;3.83;;;5.30;99.90;;;;;;5089025;28;20197;-82
2022/02/11 06:39:33;;;;;;;19.30;4.37;;;5.30;99.90;;;;;;5069121;28;20267;-82
2022/02/11 06:42:01;;;;;;;18.67;3.90;;;5.20;99.90;;;;;;5068656;28;20204;-82
2022/02/11 06:44:28;;;;;;;18.57;4.23;;;5.30;99.90;;;;;;5071613;28;20201;-81
2022/02/11 06:46:55;;;;;;;17.90;4.43;;;5.30;99.90;;;;;;5071525;28;20258;-80
2022/02/11 06:49:21;;;;;;;27.77;5.17;;;5.30;99.90;;;;;;5073592;28;20209;-81
2022/02/11 06:51:48;;;;;;;24.67;4.77;;;5.40;99.90;;;;;;5055997;28;20208;-82
2022/02/11 06:54:16;;;;;;;28.33;6.07;;;5.40;99.90;;;;;;5049188;28;20604;-81
2022/02/11 06:56:43;;;;;;;24.47;5.67;;;5.50;99.90;;;;;;5046338;28;20198;-81
2022/02/11 06:59:10;;;;;;;29.60;5.83;;;5.60;99.90;;;;;;5047318;28;20875;-81
2022/02/11 07:01:36;;;;;;;22.87;6.00;;;5.60;99.90;;;;;;5048963;28;20228;-83
2022/02/11 07:04:04;;;;;;;24.50;6.23;;;5.70;99.90;;;;;;5050297;28;20523;-83
2022/02/11 07:06:31;;;;;;;22.57;4.53;;;5.70;99.90;;;;;;5050221;28;20225;-85
2022/02/11 07:08:58;;;;;;;17.57;4.60;;;5.60;99.90;;;;;;5050225;28;20202;-84
2022/02/11 07:11:26;;;;;;;23.40;4.30;;;5.50;99.90;;;;;;5049196;28;20208;-82
2022/02/11 07:13:52;;;;;;;23.40;4.27;;;5.40;99.90;;;;;;5048673;28;20214;-84
2022/02/11 07:16:19;;;;;;;19.23;3.90;;;5.40;99.90;;;;;;5049076;28;20201;-81
2022/02/11 07:18:46;;;;;;;25.67;4.83;;;5.30;99.90;;;;;;5048605;28;20201;-83
2022/02/11 07:21:13;;;;;;;26.33;5.10;;;5.30;99.90;;;;;;5050162;28;20190;-81
2022/02/11 07:23:39;;;;;;;25.03;5.97;;;5.30;99.90;;;;;;5087352;28;20584;-81
2022/02/11 07:26:06;;;;;;;22.47;5.67;;;5.40;99.90;;;;;;5090057;28;20228;-81
2022/02/11 07:28:35;;;;;;;29.63;4.57;;;5.50;99.90;;;;;;5091164;28;20209;-82
2022/02/11 07:31:01;;;;;;;23.50;4.43;;;5.50;99.90;;;;;;5090736;28;20219;-82
2022/02/11 07:33:28;;;;;;;16.63;4.50;;;5.60;99.90;;;;;;5091868;28;20227;-82
2022/02/11 07:35:55;;;;;;;24.00;6.10;;;5.60;99.90;;;;;;5091157;28;20201;-82
2022/02/11 07:38:22;;;;;;;17.60;5.07;;;5.70;99.90;;;;;;5083231;28;20224;-81
2022/02/11 07:40:49;;;;;;;16.73;4.10;;;5.80;99.90;;;;;;5070343;28;20289;-80
2022/02/11 07:43:15;;;;;;;17.87;3.47;;;5.90;99.90;;;;;;5070375;28;20189;-82
2022/02/11 07:45:44;;;;;;;14.83;2.93;;;6.00;99.90;;;;;;5069555;28;20270;-82
2022/02/11 07:48:11;;;;;;;17.60;4.10;;;6.00;99.90;;;;;;5070551;28;20197;-82
2022/02/11 07:50:39;;;;;;;19.27;3.73;;;6.10;99.90;;;;;;5070309;28;20624;-81
2022/02/11 07:53:06;;;;;;;12.90;3.10;;;6.10;99.90;;;;;;5069918;28;20205;-82
2022/02/11 07:55:33;;;;;;;18.23;3.03;;;6.10;99.90;;;;;;5069409;28;20244;-81
2022/02/11 07:57:59;;;;;;;23.63;5.03;;;6.20;99.90;;;;;;5067857;28;20209;-80
2022/02/11 08:00:26;;;;;;;17.03;3.97;;;6.30;99.90;;;;;;5049403;28;20198;-81
2022/02/11 08:02:55;;;;;;;13.63;3.83;;;6.30;99.90;;;;;;5050271;28;20230;-83
2022/02/11 08:05:21;;;;;;;20.03;4.53;;;6.30;99.90;;;;;;5062707;28;20228;-81
2022/02/11 08:08:38;;;;;;;28.37;5.67;;;6.40;99.90;;;;;;5046378;28;20221;-79
2022/02/11 08:11:06;;;;;;;20.80;3.90;;;6.40;99.90;;;;;;5066197;28;20514;-81
2022/02/11 08:13:33;;;;;;;11.70;3.47;;;6.40;99.90;;;;;;5058340;28;20633;-81
2022/02/11 08:16:00;;;;;;;14.20;2.73;;;6.30;99.90;;;;;;5048254;28;20255;-81
2022/02/11 08:18:28;;;;;;;15.07;3.30;;;6.30;99.90;;;;;;5049956;28;20212;-81
2022/02/11 08:20:55;;;;;;;10.03;2.73;;;6.30;99.90;;;;;;5049468;28;20617;-82
2022/02/11 08:23:24;;;;;;;7.33;2.40;;;6.30;99.90;;;;;;5048856;28;20229;-80
2022/02/11 08:40:59;;;;;;;9.50;3.13;;;6.40;99.90;;;;;;4966875;28;20588;-81
2022/02/11 08:43:26;;;;;;;11.83;3.03;;;6.40;99.90;;;;;;5011392;28;20227;-79
2022/02/11 08:45:52;;;;;;;10.60;3.57;;;6.50;99.90;;;;;;5010551;28;20207;-80
2022/02/11 08:48:19;;;;;;;10.03;2.33;;;6.50;99.90;;;;;;5028213;28;20206;-79
2022/02/11 08:50:46;;;;;;;9.40;2.50;;;6.50;99.90;;;;;;5008222;28;20215;-81
2022/02/11 08:53:13;;;;;;;7.53;2.40;;;6.50;99.90;;;;;;5015774;28;20559;-81
2022/02/11 08:55:41;;;;;;;11.03;2.00;;;6.40;99.90;;;;;;5026614;28;20207;-80
2022/02/11 08:58:09;;;;;;;12.43;2.67;;;6.40;99.90;;;;;;5027426;28;20203;-81
2022/02/11 09:00:36;;;;;;;9.47;2.30;;;6.50;99.90;;;;;;5026978;28;20615;-80
2022/02/11 09:03:03;;;;;;;11.27;2.60;;;6.50;99.90;;;;;;5027247;28;20210;-80
2022/02/11 09:05:30;;;;;;;13.23;2.80;;;6.70;99.90;;;;;;5027002;28;20603;-80
2022/02/11 09:07:58;;;;;;;15.90;3.47;;;6.70;99.90;;;;;;5026713;28;20230;-80
2022/02/11 09:10:27;;;;;;;12.83;2.80;;;6.80;99.90;;;;;;5026771;28;20206;-80
2022/02/11 09:12:54;;;;;;;11.30;2.93;;;6.80;99.90;;;;;;5014891;28;20781;-81
2022/02/11 09:15:23;;;;;;;19.10;3.17;;;6.80;99.90;;;;;;5007100;28;20208;-82
2022/02/11 09:17:50;;;;;;;13.37;3.70;;;6.80;99.90;;;;;;5006359;28;20226;-79
2022/02/11 09:20:17;;;;;;;23.93;3.40;;;6.80;99.90;;;;;;5011598;28;20211;-80
2022/02/11 09:22:44;;;;;;;13.10;3.23;;;6.80;99.90;;;;;;5027079;28;20206;-78
2022/02/11 09:25:12;;;;;;;20.53;3.97;;;6.70;99.90;;;;;;5026766;28;20234;-80
2022/02/11 09:27:43;;;;;;;15.80;3.13;;;6.70;99.90;;;;;;5026081;28;20230;-80
2022/02/11 09:30:12;;;;;;;13.03;3.33;;;6.70;99.90;;;;;;5026700;28;20604;-79
2022/02/11 09:32:40;;;;;;;13.83;2.70;;;6.70;99.90;;;;;;5026578;28;20209;-79
2022/02/11 09:35:09;;;;;;;17.23;2.80;;;6.70;99.90;;;;;;5023531;28;20230;-81
2022/02/11 09:37:35;;;;;;;12.27;3.37;;;6.70;99.90;;;;;;5025745;28;20191;-80
2022/02/11 09:40:03;;;;;;;15.57;3.33;;;6.80;99.90;;;;;;5025701;28;20198;-79
2022/02/11 09:42:31;;;;;;;10.60;2.33;;;6.80;99.90;;;;;;5036459;28;20213;-80
2022/02/11 09:44:58;;;;;;;12.83;2.67;;;6.80;99.90;;;;;;5045340;28;20213;-81
2022/02/11 09:47:25;;;;;;;8.77;2.50;;;6.70;99.90;;;;;;5045884;28;20232;-80
2022/02/11 09:49:54;;;;;;;9.73;2.30;;;6.70;99.90;;;;;;5045997;28;20198;-79
2022/02/11 09:52:21;;;;;;;12.73;2.50;;;6.70;99.90;;;;;;5033515;28;20214;-80
2022/02/11 09:54:48;;;;;;;10.90;1.80;;;6.70;99.90;;;;;;5025583;28;20198;-78
2022/02/11 09:57:19;;;;;;;9.00;2.57;;;6.80;99.90;;;;;;5024801;28;20385;-79
2022/02/11 09:59:46;;;;;;;10.87;2.23;;;6.80;99.90;;;;;;5024250;28;20304;-78
2022/02/11 10:02:16;;;;;;;9.03;2.20;;;6.80;99.90;;;;;;5040045;28;20217;-78
2022/02/11 10:04:57;;;;;;;9.77;2.50;;;6.90;99.90;;;;;;5045348;28;20209;-79
2022/02/11 10:07:24;;;;;;;8.90;2.40;;;7.00;99.90;;;;;;5044578;28;20279;-79
2022/02/11 10:09:51;;;;;;;13.10;2.20;;;7.00;99.90;;;;;;5026778;28;20230;-79
2022/02/11 10:12:18;;;;;;;9.87;1.90;;;7.10;99.90;;;;;;5025466;28;20202;-80
2022/02/11 10:14:45;;;;;;;10.73;1.90;;;7.10;99.90;;;;;;5007708;28;20215;-77
2022/02/11 10:17:19;;;;;;;9.17;2.47;;;7.10;99.90;;;;;;5025466;28;20213;-79
2022/02/11 10:19:50;;;;;;;11.77;3.00;;;7.20;99.90;;;;;;5024349;28;20234;-80
2022/02/11 10:22:20;;;;;;;9.77;2.03;;;7.20;99.90;;;;;;5025217;28;20281;-81
2022/02/11 10:24:49;;;;;;;10.17;2.53;;;7.20;99.90;;;;;;5025086;28;20202;-80
2022/02/11 10:27:25;;;;;;;10.10;2.47;;;7.30;99.90;;;;;;5024181;28;20226;-78
2022/02/11 10:29:55;;;;;;;7.70;2.17;;;7.40;99.90;;;;;;5024772;28;20214;-79
2022/02/11 10:32:43;;;;;;;7.27;2.20;;;7.40;99.90;;;;;;5026057;28;20210;-80
2022/02/11 10:35:14;;;;;;;5.57;1.77;;;7.50;99.90;;;;;;5043088;28;20327;-81
2022/02/11 10:38:10;;;;;;;6.17;2.20;;;7.50;99.90;;;;;;5024739;28;20265;-80
2022/02/11 10:40:38;;;;;;;10.17;2.07;;;7.60;99.90;;;;;;5023860;28;20211;-80
2022/02/11 10:43:17;;;;;;;5.47;2.00;;;7.60;99.90;;;;;;5025721;28;20210;-80
2022/02/11 10:45:44;;;;;;;6.97;1.80;;;7.70;99.90;;;;;;5025375;28;20206;-81
2022/02/11 10:48:13;;;;;;;5.07;1.73;;;7.70;99.90;;;;;;5042858;28;20244;-79
2022/02/11 10:50:40;;;;;;;5.77;1.83;;;7.70;99.90;;;;;;5043931;28;20217;-78
2022/02/11 10:53:08;;;;;;;6.97;1.73;;;7.80;99.90;;;;;;5043770;28;20214;-78
2022/02/11 10:55:47;;;;;;;5.00;1.83;;;7.80;99.90;;;;;;5034102;28;20221;-78
2022/02/11 10:58:16;;;;;;;9.67;2.30;;;7.90;99.90;;;;;;5035496;28;20354;-78
2022/02/11 11:00:43;;;;;;;7.70;1.53;;;7.90;99.90;;;;;;5045852;28;20213;-80
2022/02/11 11:03:10;;;;;;;13.43;2.40;;;7.90;99.90;;;;;;5032499;28;20215;-78
2022/02/11 11:05:38;;;;;;;11.13;2.20;;;7.90;99.90;;;;;;5027184;28;20246;-78
2022/02/11 11:08:06;;;;;;;10.03;2.40;;;7.90;99.90;;;;;;5027774;28;20234;-77
2022/02/11 11:10:36;;;;;;;13.47;2.30;;;8.00;99.90;;;;;;5027666;28;20207;-78
2022/02/11 11:13:03;;;;;;;11.70;2.53;;;8.10;99.90;;;;;;5027334;28;20269;-78
2022/02/11 11:15:31;;;;;;;13.53;2.70;;;8.30;99.90;;;;;;5026793;28;20219;-78
2022/02/11 11:18:03;;;;;;;11.03;2.60;;;8.40;99.90;;;;;;5027096;28;20215;-79
2022/02/11 11:20:33;;;;;;;11.70;3.23;;;8.40;99.90;;;;;;5027256;28;20225;-80
2022/02/11 11:23:03;;;;;;;13.47;2.47;;;8.50;99.90;;;;;;5026455;28;21091;-78
2022/02/11 11:25:55;;;;;;;8.10;2.30;;;8.40;99.90;;;;;;5027133;28;20982;-78
2022/02/11 11:28:39;;;;;;;7.93;1.90;;;8.30;99.90;;;;;;5036484;28;20229;-79
2022/02/11 11:31:10;;;;;;;12.97;2.37;;;8.30;99.90;;;;;;5045818;28;20688;-79
2022/02/11 11:33:37;;;;;;;10.43;2.37;;;8.20;99.90;;;;;;5046846;28;20244;-80
2022/02/11 11:36:06;;;;;;;13.93;2.83;;;8.10;99.90;;;;;;5039751;28;20301;-77
2022/02/11 11:38:39;;;;;;;12.93;2.70;;;8.00;99.90;;;;;;5026771;28;20210;-79
2022/02/11 11:41:10;;;;;;;13.23;2.23;;;8.00;99.90;;;;;;5032863;28;20217;-79
2022/02/11 11:43:39;;;;;;;13.37;3.27;;;8.00;99.90;;;;;;5046642;28;20210;-78
2022/02/11 11:46:22;;;;;;;13.57;2.63;;;8.00;99.90;;;;;;5030942;28;20225;-79
2022/02/11 11:48:54;;;;;;;16.73;3.07;;;8.10;99.90;;;;;;5046745;28;20225;-78
2022/02/11 11:51:21;;;;;;;8.40;2.10;;;8.10;99.90;;;;;;5046414;28;20214;-77
2022/02/11 11:53:48;;;;;;;13.57;2.77;;;8.10;99.90;;;;;;5043163;28;20214;-79
2022/02/11 11:56:42;;;;;;;13.17;2.43;;;8.10;99.90;;;;;;5027163;28;20217;-79
2022/02/11 11:59:16;;;;;;;10.37;2.43;;;8.10;99.90;;;;;;5011781;28;21044;-78
2022/02/11 12:01:52;;;;;;;13.43;2.40;;;8.10;99.90;;;;;;5026445;28;20210;-79
2022/02/11 12:04:23;;;;;;;12.80;2.73;;;8.00;99.90;;;;;;5027193;28;20329;-77
2022/02/11 12:06:52;;;;;;;11.87;2.60;;;8.00;99.90;;;;;;5026147;28;20269;-78
2022/02/11 12:09:18;;;;;;;11.70;3.20;;;8.00;99.90;;;;;;5026226;28;20906;-78
2022/02/11 12:11:47;;;;;;;11.50;2.93;;;8.00;99.90;;;;;;5025140;28;20241;-79
2022/02/11 12:14:15;;;;;;;11.30;2.30;;;8.20;99.90;;;;;;5027008;28;20214;-78
2022/02/11 12:16:42;;;;;;;10.50;2.47;;;8.20;99.90;;;;;;5026466;28;20297;-78
2022/02/11 12:19:09;;;;;;;14.63;2.73;;;8.20;99.90;;;;;;5025298;28;20257;-78
2022/02/11 12:21:37;;;;;;;7.77;2.60;;;8.30;99.90;;;;;;5025783;28;20338;-78
2022/02/11 12:29:34;;;;;;;10.87;2.00;;;8.50;99.90;;;;;;5035204;28;20341;-79
2022/02/11 12:32:02;;;;;;;15.77;2.00;;;8.50;99.90;;;;;;5025562;28;20971;-78
2022/02/11 12:34:29;;;;;;;16.13;2.90;;;8.40;99.90;;;;;;5025341;28;20238;-78
2022/02/11 12:37:00;;;;;;;7.90;1.80;;;8.40;99.90;;;;;;5025261;28;20218;-78
2022/02/11 12:39:27;;;;;;;12.43;2.73;;;8.30;99.90;;;;;;5026181;28;20656;-77
2022/02/11 12:41:56;;;;;;;6.90;1.50;;;8.20;99.90;;;;;;5025096;28;20215;-77
2022/02/11 12:44:27;;;;;;;9.03;2.00;;;8.30;99.90;;;;;;5026393;28;20520;-78
2022/02/11 12:46:55;;;;;;;12.93;1.80;;;8.30;99.90;;;;;;5035913;28;20264;-79
2022/02/11 12:49:22;;;;;;;12.17;2.70;;;8.30;99.90;;;;;;5038425;28;20222;-77
2022/02/11 12:51:51;;;;;;;10.97;2.53;;;8.30;99.90;;;;;;5025569;28;20215;-78
2022/02/11 12:54:19;;;;;;;10.87;2.50;;;8.40;99.90;;;;;;5026268;28;20522;-76
2022/02/11 12:56:46;;;;;;;7.67;2.27;;;8.40;99.90;;;;;;5038742;28;20311;-78
2022/02/11 12:59:14;;;;;;;11.63;2.23;;;8.40;99.90;;;;;;5043737;28;20214;-76
2022/02/11 13:01:41;;;;;;;12.87;3.23;;;8.30;99.90;;;;;;5044549;28;20210;-77
2022/02/11 13:04:17;;;;;;;10.53;2.43;;;8.30;99.90;;;;;;5045143;28;20217;-77
2022/02/11 13:06:44;;;;;;;12.73;2.73;;;8.20;99.90;;;;;;5028141;28;20626;-78
2022/02/11 13:09:12;;;;;;;9.10;2.43;;;8.20;99.90;;;;;;5024811;28;20226;-77
2022/02/11 13:11:41;;;;;;;15.50;2.27;;;8.10;99.90;;;;;;5025577;28;20214;-78
2022/02/11 13:14:09;;;;;;;12.30;2.63;;;8.00;99.90;;;;;;5040021;28;20534;-76
2022/02/11 13:16:39;;;;;;;14.23;2.23;;;7.90;99.90;;;;;;5045162;28;20220;-77
2022/02/11 13:19:12;;;;;;;11.17;2.13;;;7.80;99.90;;;;;;5045285;28;20264;-78
2022/02/11 13:21:39;;;;;;;10.50;2.47;;;7.80;99.90;;;;;;5043450;28;20206;-79
2022/02/11 13:24:06;;;;;;;7.33;2.57;;;7.80;99.90;;;;;;5023679;28;20221;-81
2022/02/11 13:26:35;;;;;;;10.57;1.93;;;7.90;99.90;;;;;;5025312;28;20227;-79
2022/02/11 13:29:02;;;;;;;6.00;1.63;;;7.90;99.90;;;;;;5024112;28;20242;-80
2022/02/11 13:31:47;;;;;;;9.27;1.83;;;7.90;99.90;;;;;;5025744;28;20234;-79
2022/02/11 13:34:14;;;;;;;8.80;1.77;;;7.90;99.90;;;;;;5025225;28;20241;-79
2022/02/11 13:36:47;;;;;;;6.37;2.00;;;8.00;99.90;;;;;;5024295;28;20217;-79
2022/02/11 13:39:26;;;;;;;9.10;3.27;;;8.00;99.90;;;;;;5025438;28;20213;-79
2022/02/11 13:41:53;;;;;;;6.83;1.67;;;8.00;99.90;;;;;;5024986;28;20213;-78
2022/02/11 13:44:21;;;;;;;9.27;2.00;;;8.00;99.90;;;;;;5026011;28;20214;-78
2022/02/11 13:46:52;;;;;;;7.63;1.83;;;8.10;99.90;;;;;;5036909;28;20220;-80
2022/02/11 13:49:21;;;;;;;12.27;2.33;;;8.10;99.90;;;;;;5039210;28;20235;-78
2022/02/11 13:54:58;;;;;;;10.10;2.20;;;8.10;99.90;;;;;;5023883;28;20210;-79
2022/02/11 13:57:26;;;;;;;8.67;1.60;;;8.10;99.90;;;;;;5024587;28;20206;-78
2022/02/11 13:59:53;;;;;;;11.80;2.43;;;8.10;99.90;;;;;;5024899;28;20214;-79
2022/02/11 14:02:22;;;;;;;10.67;1.63;;;8.00;99.90;;;;;;5025110;28;20215;-78
2022/02/11 14:05:01;;;;;;;7.87;2.07;;;8.00;99.90;;;;;;5023840;28;20639;-78
2022/02/11 14:07:28;;;;;;;13.37;2.07;;;8.00;99.90;;;;;;5024991;28;20206;-78
2022/02/11 14:09:54;;;;;;;9.83;2.47;;;8.00;99.90;;;;;;5039154;28;20296;-78
2022/02/11 14:12:29;;;;;;;8.63;1.97;;;8.00;99.90;;;;;;5044128;28;20299;-77
2022/02/11 14:14:57;;;;;;;8.93;1.80;;;8.00;99.90;;;;;;5025596;28;20698;-76
2022/02/11 14:17:27;;;;;;;7.03;2.23;;;7.90;99.90;;;;;;5024814;28;20279;-77
2022/02/11 14:19:54;;;;;;;8.60;1.40;;;7.90;99.90;;;;;;5023698;28;20221;-78
2022/02/11 14:22:21;;;;;;;5.17;1.50;;;7.80;99.90;;;;;;5023968;28;20213;-78
2022/02/11 14:24:48;;;;;;;9.27;2.30;;;7.90;99.90;;;;;;5023735;28;21009;-79
2022/02/11 14:27:15;;;;;;;6.43;1.73;;;7.80;99.90;;;;;;5023533;28;20210;-79
2022/02/11 14:29:42;;;;;;;11.10;2.53;;;7.70;99.90;;;;;;5023493;28;20236;-78
2022/02/11 14:32:09;;;;;;;11.50;2.50;;;7.70;99.90;;;;;;5024828;28;20218;-79
2022/02/11 14:34:37;;;;;;;12.07;2.30;;;7.70;99.90;;;;;;5022589;28;20262;-78
2022/02/11 14:37:05;;;;;;;12.00;1.93;;;7.70;99.90;;;;;;5023017;28;20206;-77
2022/02/11 14:39:32;;;;;;;14.40;2.20;;;7.70;99.90;;;;;;5023865;28;20217;-78
2022/02/11 14:42:02;;;;;;;9.03;1.93;;;7.70;99.90;;;;;;5023949;28;20210;-77
2022/02/11 14:44:32;;;;;;;6.53;2.00;;;7.60;99.90;;;;;;5024778;28;20583;-77
2022/02/11 14:47:00;;;;;;;13.73;1.73;;;7.60;99.90;;;;;;5033926;28;20218;-77
2022/02/11 14:49:27;;;;;;;5.07;1.70;;;7.50;99.90;;;;;;5034471;28;20272;-77
2022/02/11 14:51:57;;;;;;;5.80;1.57;;;7.50;99.90;;;;;;5023245;28;20514;-78
2022/02/11 14:54:25;;;;;;;5.27;1.50;;;7.50;99.90;;;;;;5023918;28;20505;-77
2022/02/11 14:56:54;;;;;;;7.00;1.60;;;7.40;99.90;;;;;;5029332;28;20198;-76
2022/02/11 14:59:21;;;;;;;9.63;2.17;;;7.40;99.90;;;;;;5034824;28;20199;-78
2022/02/11 15:01:48;;;;;;;3.70;1.30;;;7.50;99.90;;;;;;5023120;28;20641;-77
2022/02/11 15:04:16;;;;;;;7.43;1.50;;;7.50;99.90;;;;;;5024365;28;20260;-77
2022/02/11 15:06:46;;;;;;;8.60;1.93;;;7.40;99.90;;;;;;5023413;28;20284;-78
2022/02/11 15:09:14;;;;;;;4.53;1.33;;;7.30;99.90;;;;;;5023270;28;20223;-77
2022/02/11 15:11:42;;;;;;;12.10;1.70;;;7.20;99.90;;;;;;5023658;28;20219;-77
2022/02/11 15:14:09;;;;;;;5.53;1.20;;;7.10;99.90;;;;;;5022658;28;20297;-78
2022/02/11 15:16:36;;;;;;;10.27;2.40;;;7.10;99.90;;;;;;5024460;28;20240;-77
2022/02/11 15:19:04;;;;;;;6.37;1.43;;;7.00;99.90;;;;;;5043311;28;20233;-77
2022/02/11 15:21:31;;;;;;;7.80;1.50;;;7.10;99.90;;;;;;5043274;28;20229;-76
2022/02/11 15:23:58;;;;;;;6.47;1.63;;;7.20;99.90;;;;;;5038836;28;20325;-77
2022/02/11 15:26:26;;;;;;;4.97;1.77;;;7.20;99.90;;;;;;5043521;28;20241;-77
2022/02/11 15:28:53;;;;;;;3.33;1.23;;;7.20;99.90;;;;;;5042672;28;20225;-76
2022/02/11 15:31:19;;;;;;;9.83;1.70;;;7.10;99.90;;;;;;5025221;28;20221;-77
2022/02/11 15:33:46;;;;;;;10.37;1.60;;;7.00;99.90;;;;;;5023363;28;20238;-78
2022/02/11 15:36:14;;;;;;;8.37;1.60;;;7.00;99.90;;;;;;5022392;28;20207;-78
2022/02/11 15:38:41;;;;;;;9.07;1.60;;;7.00;99.90;;;;;;5023184;28;20633;-77
2022/02/11 15:41:09;;;;;;;6.70;1.47;;;7.00;99.90;;;;;;5023394;28;20210;-79
2022/02/11 15:43:38;;;;;;;5.93;1.40;;;6.90;99.90;;;;;;5022543;28;20211;-77
2022/02/11 15:46:06;;;;;;;5.17;1.50;;;6.90;99.90;;;;;;5027651;28;20209;-77
2022/02/11 15:48:33;;;;;;;5.07;1.70;;;6.90;99.90;;;;;;5027481;28;20700;-77
2022/02/11 15:51:01;;;;;;;4.90;1.50;;;6.80;99.90;;;;;;5026641;28;20557;-77
2022/02/11 15:53:29;;;;;;;5.40;1.60;;;6.80;99.90;;;;;;5027512;28;20213;-78
2022/02/11 15:55:57;;;;;;;6.13;1.93;;;6.80;99.90;;;;;;5026790;28;20916;-76
2022/02/11 15:58:23;;;;;;;8.17;1.40;;;6.70;99.90;;;;;;5027470;28;20195;-79
2022/02/11 16:00:52;;;;;;;10.83;1.97;;;6.70;99.90;;;;;;5027640;28;20209;-80
2022/02/11 16:03:19;;;;;;;6.03;1.33;;;6.60;99.90;;;;;;5027894;28;20546;-78
2022/02/11 16:05:46;;;;;;;5.37;1.60;;;6.50;99.90;;;;;;5026122;28;20614;-78
2022/02/11 16:08:13;;;;;;;9.37;2.10;;;6.50;99.90;;;;;;5027035;28;20209;-79
2022/02/11 16:10:40;;;;;;;5.53;1.93;;;6.50;99.90;;;;;;5027610;28;20213;-78
2022/02/11 16:13:06;;;;;;;9.70;2.17;;;6.40;99.90;;;;;;5037611;28;20610;-78
2022/02/11 16:15:33;;;;;;;5.50;1.40;;;6.30;99.90;;;;;;5046748;28;20198;-77
2022/02/11 16:18:03;;;;;;;7.03;1.63;;;6.30;99.90;;;;;;5046565;28;20198;-77